sensor_id;sensor_type;location;lat;lon;timestamp;temperature;humidity
12436;DHT22;6282;51.440;6.938;2023-02-17T00:01:20;10.10;99.90
12436;DHT22;6282;51.440;6.938;2023-02-17T00:03:48;10.00;99.90
12436;DHT22;6282;51.440;6.938;2023-02-17T00:06:16;10.30;99.90
12436;DHT22;6282;51.440;6.938;2023-02-17T00:08:43;10.10;99.90
12436;DHT22;6282;51.440;6.938;2023-02-17T00:11:12;10.10;99.90
12436;DHT22;6282;51.440;6.938;2023-02-17T00:13:39;10.10;99.90
12436;DHT22;6282;51.440;6.938;2023-02-17T00:16:07;10.00;99.90
12436;DHT22;6282;51.440;6.938;2023-02-17T00:18:35;10.10;99.90
12436;DHT22;6282;51.440;6.938;2023-02-17T00:21:11;10.10;99.90
12436;DHT22;6282;51.440;6.938;2023-02-17T00:23:37;10.10;99.90
12436;DHT22;6282;51.440;6.938;2023-02-17T00:26:05;10.10;99.90
12436;DHT22;6282;51.440;6.938;2023-02-17T00:28:33;10.30;99.90
12436;DHT22;6282;51.440;6.938;2023-02-17T00:31:04;10.10;99.90
12436;DHT22;6282;51.440;6.938;2023-02-17T00:33:31;10.10;99.90
12436;DHT22;6282;51.440;6.938;2023-02-17T00:38:25;10.40;99.90
12436;DHT22;6282;51.440;6.938;2023-02-17T00:40:52;10.20;99.90
12436;DHT22;6282;51.440;6.938;2023-02-17T00:43:19;10.40;99.90
12436;DHT22;6282;51.440;6.938;2023-02-17T00:45:48;10.20;99.90
12436;DHT22;6282;51.440;6.938;2023-02-17T00:48:14;10.20;99.90
12436;DHT22;6282;51.440;6.938;2023-02-17T00:50:41;10.30;99.90
12436;DHT22;6282;51.440;6.938;2023-02-17T00:53:08;10.30;99.90
12436;DHT22;6282;51.440;6.938;2023-02-17T00:55:35;10.30;99.90
12436;DHT22;6282;51.440;6.938;2023-02-17T00:58:02;10.20;99.90
12436;DHT22;6282;51.440;6.938;2023-02-17T01:00:28;10.20;99.90
12436;DHT22;6282;51.440;6.938;2023-02-17T01:02:56;10.20;99.90
12436;DHT22;6282;51.440;6.938;2023-02-17T01:05:23;10.20;99.90
12436;DHT22;6282;51.440;6.938;2023-02-17T01:07:50;10.20;99.90
12436;DHT22;6282;51.440;6.938;2023-02-17T01:10:17;10.20;99.90
12436;DHT22;6282;51.440;6.938;2023-02-17T01:12:44;10.10;99.90
12436;DHT22;6282;51.440;6.938;2023-02-17T01:15:11;10.10;99.90
12436;DHT22;6282;51.440;6.938;2023-02-17T01:17:38;10.00;99.90
12436;DHT22;6282;51.440;6.938;2023-02-17T01:20:07;10.00;99.90
12436;DHT22;6282;51.440;6.938;2023-02-17T01:22:36;9.70;99.90
12436;DHT22;6282;51.440;6.938;2023-02-17T01:25:03;10.00;99.90
12436;DHT22;6282;51.440;6.938;2023-02-17T01:27:30;9.90;99.90
12436;DHT22;6282;51.440;6.938;2023-02-17T01:29:57;9.90;99.90
12436;DHT22;6282;51.440;6.938;2023-02-17T01:32:24;9.90;99.90
12436;DHT22;6282;51.440;6.938;2023-02-17T01:34:50;9.90;99.90
12436;DHT22;6282;51.440;6.938;2023-02-17T01:37:19;9.90;99.90
12436;DHT22;6282;51.440;6.938;2023-02-17T01:39:45;9.80;99.90
12436;DHT22;6282;51.440;6.938;2023-02-17T01:42:14;9.80;99.90
12436;DHT22;6282;51.440;6.938;2023-02-17T01:47:52;9.50;99.90
12436;DHT22;6282;51.440;6.938;2023-02-17T01:50:22;9.80;99.90
12436;DHT22;6282;51.440;6.938;2023-02-17T01:52:53;9.80;99.90
12436;DHT22;6282;51.440;6.938;2023-02-17T01:55:22;9.50;99.90
12436;DHT22;6282;51.440;6.938;2023-02-17T01:57:53;9.80;99.90
12436;DHT22;6282;51.440;6.938;2023-02-17T02:00:22;9.70;99.90
12436;DHT22;6282;51.440;6.938;2023-02-17T02:02:50;9.70;99.90
12436;DHT22;6282;51.440;6.938;2023-02-17T02:05:19;9.70;99.90
12436;DHT22;6282;51.440;6.938;2023-02-17T02:07:47;9.70;99.90
12436;DHT22;6282;51.440;6.938;2023-02-17T02:10:17;9.80;99.90
12436;DHT22;6282;51.440;6.938;2023-02-17T02:12:44;9.70;99.90
12436;DHT22;6282;51.440;6.938;2023-02-17T02:15:14;9.70;99.90
12436;DHT22;6282;51.440;6.938;2023-02-17T02:17:47;9.70;99.90
12436;DHT22;6282;51.440;6.938;2023-02-17T02:20:54;9.70;99.90
12436;DHT22;6282;51.440;6.938;2023-02-17T02:27:14;9.70;99.90
12436;DHT22;6282;51.440;6.938;2023-02-17T02:32:53;9.70;99.90
12436;DHT22;6282;51.440;6.938;2023-02-17T02:35:29;9.90;99.90
12436;DHT22;6282;51.440;6.938;2023-02-17T02:38:00;9.90;99.90
12436;DHT22;6282;51.440;6.938;2023-02-17T02:40:33;9.90;99.90
12436;DHT22;6282;51.440;6.938;2023-02-17T02:43:02;9.80;99.90
12436;DHT22;6282;51.440;6.938;2023-02-17T02:45:29;10.10;99.90
12436;DHT22;6282;51.440;6.938;2023-02-17T02:47:58;10.10;99.90
12436;DHT22;6282;51.440;6.938;2023-02-17T02:50:31;10.00;99.90
12436;DHT22;6282;51.440;6.938;2023-02-17T02:53:15;10.10;99.90
12436;DHT22;6282;51.440;6.938;2023-02-17T02:55:52;10.10;99.90
12436;DHT22;6282;51.440;6.938;2023-02-17T02:58:21;10.20;99.90
12436;DHT22;6282;51.440;6.938;2023-02-17T03:00:57;10.30;99.90
12436;DHT22;6282;51.440;6.938;2023-02-17T03:03:31;10.20;99.90
12436;DHT22;6282;51.440;6.938;2023-02-17T03:06:05;10.30;99.90
12436;DHT22;6282;51.440;6.938;2023-02-17T03:08:36;10.30;99.90
12436;DHT22;6282;51.440;6.938;2023-02-17T03:11:04;10.40;99.90
12436;DHT22;6282;51.440;6.938;2023-02-17T03:13:32;10.50;99.90
12436;DHT22;6282;51.440;6.938;2023-02-17T03:16:02;10.30;99.90
12436;DHT22;6282;51.440;6.938;2023-02-17T03:18:32;10.30;99.90
12436;DHT22;6282;51.440;6.938;2023-02-17T03:21:02;10.00;99.90
12436;DHT22;6282;51.440;6.938;2023-02-17T03:23:30;10.30;99.90
12436;DHT22;6282;51.440;6.938;2023-02-17T03:25:57;10.80;99.90
12436;DHT22;6282;51.440;6.938;2023-02-17T03:28:24;10.30;99.90
12436;DHT22;6282;51.440;6.938;2023-02-17T03:30:51;10.30;99.90
12436;DHT22;6282;51.440;6.938;2023-02-17T03:33:18;10.10;99.90
12436;DHT22;6282;51.440;6.938;2023-02-17T03:35:46;10.20;99.90
12436;DHT22;6282;51.440;6.938;2023-02-17T03:38:13;10.80;99.90
12436;DHT22;6282;51.440;6.938;2023-02-17T03:40:40;10.10;99.90
12436;DHT22;6282;51.440;6.938;2023-02-17T03:43:07;10.40;99.90
12436;DHT22;6282;51.440;6.938;2023-02-17T03:45:35;10.40;99.90
12436;DHT22;6282;51.440;6.938;2023-02-17T03:48:02;10.50;99.90
12436;DHT22;6282;51.440;6.938;2023-02-17T03:50:29;10.60;99.90
12436;DHT22;6282;51.440;6.938;2023-02-17T03:52:57;10.40;99.90
12436;DHT22;6282;51.440;6.938;2023-02-17T03:55:24;10.40;99.90
12436;DHT22;6282;51.440;6.938;2023-02-17T03:57:51;10.40;99.90
12436;DHT22;6282;51.440;6.938;2023-02-17T04:00:19;10.30;99.90
12436;DHT22;6282;51.440;6.938;2023-02-17T04:02:46;10.50;99.90
12436;DHT22;6282;51.440;6.938;2023-02-17T04:05:13;10.00;99.90
12436;DHT22;6282;51.440;6.938;2023-02-17T04:07:39;10.40;99.90
12436;DHT22;6282;51.440;6.938;2023-02-17T04:10:08;10.50;99.90
12436;DHT22;6282;51.440;6.938;2023-02-17T04:12:35;10.50;99.90
12436;DHT22;6282;51.440;6.938;2023-02-17T04:15:02;10.50;99.90
12436;DHT22;6282;51.440;6.938;2023-02-17T04:17:29;10.50;99.90
12436;DHT22;6282;51.440;6.938;2023-02-17T04:19:56;10.60;99.90
12436;DHT22;6282;51.440;6.938;2023-02-17T04:22:23;10.50;99.90
12436;DHT22;6282;51.440;6.938;2023-02-17T04:24:50;10.50;99.90
12436;DHT22;6282;51.440;6.938;2023-02-17T04:27:18;10.50;99.90
12436;DHT22;6282;51.440;6.938;2023-02-17T04:29:45;10.90;99.90
12436;DHT22;6282;51.440;6.938;2023-02-17T04:32:11;10.60;99.90
12436;DHT22;6282;51.440;6.938;2023-02-17T04:34:38;10.50;99.90
12436;DHT22;6282;51.440;6.938;2023-02-17T04:37:06;10.10;99.90
12436;DHT22;6282;51.440;6.938;2023-02-17T04:39:32;10.50;99.90
12436;DHT22;6282;51.440;6.938;2023-02-17T04:41:59;10.50;99.90
12436;DHT22;6282;51.440;6.938;2023-02-17T04:44:27;10.60;99.90
12436;DHT22;6282;51.440;6.938;2023-02-17T04:46:54;10.70;99.90
12436;DHT22;6282;51.440;6.938;2023-02-17T04:49:21;10.70;99.90
12436;DHT22;6282;51.440;6.938;2023-02-17T04:51:48;10.70;99.90
12436;DHT22;6282;51.440;6.938;2023-02-17T04:54:15;10.80;99.90
12436;DHT22;6282;51.440;6.938;2023-02-17T04:56:42;10.80;99.90
12436;DHT22;6282;51.440;6.938;2023-02-17T04:59:09;10.60;99.90
12436;DHT22;6282;51.440;6.938;2023-02-17T05:01:37;10.60;99.90
12436;DHT22;6282;51.440;6.938;2023-02-17T05:04:04;10.60;99.90
12436;DHT22;6282;51.440;6.938;2023-02-17T05:06:31;10.60;99.90
12436;DHT22;6282;51.440;6.938;2023-02-17T05:08:58;10.60;99.90
12436;DHT22;6282;51.440;6.938;2023-02-17T05:11:24;10.10;99.90
12436;DHT22;6282;51.440;6.938;2023-02-17T05:13:51;10.10;99.90
12436;DHT22;6282;51.440;6.938;2023-02-17T05:16:18;10.30;99.90
12436;DHT22;6282;51.440;6.938;2023-02-17T05:18:46;10.60;99.90
12436;DHT22;6282;51.440;6.938;2023-02-17T05:21:13;10.60;99.90
12436;DHT22;6282;51.440;6.938;2023-02-17T05:23:40;10.70;99.90
12436;DHT22;6282;51.440;6.938;2023-02-17T05:26:07;10.60;99.90
12436;DHT22;6282;51.440;6.938;2023-02-17T05:28:34;10.60;99.90
12436;DHT22;6282;51.440;6.938;2023-02-17T05:31:02;10.60;99.90
12436;DHT22;6282;51.440;6.938;2023-02-17T05:33:29;10.60;99.90
12436;DHT22;6282;51.440;6.938;2023-02-17T05:36:02;10.10;99.90
12436;DHT22;6282;51.440;6.938;2023-02-17T05:38:29;10.50;99.90
12436;DHT22;6282;51.440;6.938;2023-02-17T05:40:56;10.50;99.90
12436;DHT22;6282;51.440;6.938;2023-02-17T05:43:23;10.70;99.90
12436;DHT22;6282;51.440;6.938;2023-02-17T05:45:50;10.50;99.90
12436;DHT22;6282;51.440;6.938;2023-02-17T05:48:16;10.60;99.90
12436;DHT22;6282;51.440;6.938;2023-02-17T05:50:43;10.60;99.90
12436;DHT22;6282;51.440;6.938;2023-02-17T05:53:11;10.40;99.90
12436;DHT22;6282;51.440;6.938;2023-02-17T05:58:06;10.50;99.90
12436;DHT22;6282;51.440;6.938;2023-02-17T06:00:32;10.50;99.90
12436;DHT22;6282;51.440;6.938;2023-02-17T06:02:59;10.40;99.90
12436;DHT22;6282;51.440;6.938;2023-02-17T06:05:26;12.30;99.90
12436;DHT22;6282;51.440;6.938;2023-02-17T06:07:53;10.50;99.90
12436;DHT22;6282;51.440;6.938;2023-02-17T06:10:22;10.60;99.90
12436;DHT22;6282;51.440;6.938;2023-02-17T06:12:49;10.50;99.90
12436;DHT22;6282;51.440;6.938;2023-02-17T06:15:16;10.50;99.90
12436;DHT22;6282;51.440;6.938;2023-02-17T06:17:43;10.60;99.90
12436;DHT22;6282;51.440;6.938;2023-02-17T06:20:10;10.60;99.90
12436;DHT22;6282;51.440;6.938;2023-02-17T06:22:37;10.40;99.90
12436;DHT22;6282;51.440;6.938;2023-02-17T06:25:04;10.60;99.90
12436;DHT22;6282;51.440;6.938;2023-02-17T06:27:33;10.50;99.90
12436;DHT22;6282;51.440;6.938;2023-02-17T06:30:00;10.60;99.90
12436;DHT22;6282;51.440;6.938;2023-02-17T06:32:27;10.60;99.90
12436;DHT22;6282;51.440;6.938;2023-02-17T06:34:54;11.90;99.90
12436;DHT22;6282;51.440;6.938;2023-02-17T06:37:21;10.60;99.90
12436;DHT22;6282;51.440;6.938;2023-02-17T06:39:48;10.60;99.90
12436;DHT22;6282;51.440;6.938;2023-02-17T06:42:14;10.80;99.90
12436;DHT22;6282;51.440;6.938;2023-02-17T06:44:42;10.70;99.90
12436;DHT22;6282;51.440;6.938;2023-02-17T06:47:09;10.80;99.90
12436;DHT22;6282;51.440;6.938;2023-02-17T06:49:36;10.50;99.90
12436;DHT22;6282;51.440;6.938;2023-02-17T06:52:03;10.70;99.90
12436;DHT22;6282;51.440;6.938;2023-02-17T06:54:30;10.50;99.90
12436;DHT22;6282;51.440;6.938;2023-02-17T06:56:57;10.50;99.90
12436;DHT22;6282;51.440;6.938;2023-02-17T06:59:24;10.40;99.90
12436;DHT22;6282;51.440;6.938;2023-02-17T07:01:52;9.80;99.90
12436;DHT22;6282;51.440;6.938;2023-02-17T07:04:19;10.30;99.90
12436;DHT22;6282;51.440;6.938;2023-02-17T07:06:46;10.30;99.90
12436;DHT22;6282;51.440;6.938;2023-02-17T07:09:12;10.20;99.90
12436;DHT22;6282;51.440;6.938;2023-02-17T07:11:39;10.00;99.90
12436;DHT22;6282;51.440;6.938;2023-02-17T07:14:08;10.00;99.90
12436;DHT22;6282;51.440;6.938;2023-02-17T07:16:35;10.20;99.90
12436;DHT22;6282;51.440;6.938;2023-02-17T07:19:05;10.20;99.90
12436;DHT22;6282;51.440;6.938;2023-02-17T07:21:32;10.90;99.90
12436;DHT22;6282;51.440;6.938;2023-02-17T07:26:26;10.50;99.90
12436;DHT22;6282;51.440;6.938;2023-02-17T07:28:52;10.00;99.90
12436;DHT22;6282;51.440;6.938;2023-02-17T07:31:19;10.30;99.90
12436;DHT22;6282;51.440;6.938;2023-02-17T07:33:46;10.40;99.90
12436;DHT22;6282;51.440;6.938;2023-02-17T07:36:16;10.50;99.90
12436;DHT22;6282;51.440;6.938;2023-02-17T07:38:43;10.40;99.90
12436;DHT22;6282;51.440;6.938;2023-02-17T07:41:11;10.70;99.90
12436;DHT22;6282;51.440;6.938;2023-02-17T07:43:39;10.50;99.90
12436;DHT22;6282;51.440;6.938;2023-02-17T07:46:07;10.50;99.90
12436;DHT22;6282;51.440;6.938;2023-02-17T07:48:34;10.70;99.90
12436;DHT22;6282;51.440;6.938;2023-02-17T07:51:04;10.50;99.90
12436;DHT22;6282;51.440;6.938;2023-02-17T07:53:33;10.70;99.90
12436;DHT22;6282;51.440;6.938;2023-02-17T07:56:01;10.60;99.90
12436;DHT22;6282;51.440;6.938;2023-02-17T07:58:29;10.60;99.90
12436;DHT22;6282;51.440;6.938;2023-02-17T08:00:56;10.70;99.90
12436;DHT22;6282;51.440;6.938;2023-02-17T08:03:23;10.70;99.90
12436;DHT22;6282;51.440;6.938;2023-02-17T08:05:50;10.70;99.90
12436;DHT22;6282;51.440;6.938;2023-02-17T08:08:17;10.70;99.90
12436;DHT22;6282;51.440;6.938;2023-02-17T08:11:03;10.70;99.90
12436;DHT22;6282;51.440;6.938;2023-02-17T08:13:47;10.90;99.90
12436;DHT22;6282;51.440;6.938;2023-02-17T08:16:14;10.70;99.90
12436;DHT22;6282;51.440;6.938;2023-02-17T08:18:40;10.70;99.90
12436;DHT22;6282;51.440;6.938;2023-02-17T08:21:07;10.80;99.90
12436;DHT22;6282;51.440;6.938;2023-02-17T08:23:34;10.90;99.90
12436;DHT22;6282;51.440;6.938;2023-02-17T08:26:02;10.80;99.90
12436;DHT22;6282;51.440;6.938;2023-02-17T08:28:30;10.90;99.90
12436;DHT22;6282;51.440;6.938;2023-02-17T08:30:57;10.90;99.90
12436;DHT22;6282;51.440;6.938;2023-02-17T08:33:24;11.10;99.90
12436;DHT22;6282;51.440;6.938;2023-02-17T08:35:51;10.80;99.90
12436;DHT22;6282;51.440;6.938;2023-02-17T08:38:18;11.00;99.90
12436;DHT22;6282;51.440;6.938;2023-02-17T08:40:45;11.20;99.90
12436;DHT22;6282;51.440;6.938;2023-02-17T08:43:13;10.90;99.90
12436;DHT22;6282;51.440;6.938;2023-02-17T08:48:07;11.00;99.90
12436;DHT22;6282;51.440;6.938;2023-02-17T08:50:34;11.10;99.90
12436;DHT22;6282;51.440;6.938;2023-02-17T08:53:01;11.10;99.90
12436;DHT22;6282;51.440;6.938;2023-02-17T08:55:28;10.90;99.90
12436;DHT22;6282;51.440;6.938;2023-02-17T08:57:54;11.20;99.90
12436;DHT22;6282;51.440;6.938;2023-02-17T09:00:23;11.50;99.90
12436;DHT22;6282;51.440;6.938;2023-02-17T09:02:50;11.30;99.90
12436;DHT22;6282;51.440;6.938;2023-02-17T09:05:17;11.20;99.90
12436;DHT22;6282;51.440;6.938;2023-02-17T09:07:44;11.30;99.90
12436;DHT22;6282;51.440;6.938;2023-02-17T09:10:13;11.30;99.90
12436;DHT22;6282;51.440;6.938;2023-02-17T09:12:40;11.30;99.90
12436;DHT22;6282;51.440;6.938;2023-02-17T09:15:07;11.40;99.90
12436;DHT22;6282;51.440;6.938;2023-02-17T09:17:39;11.50;99.90
12436;DHT22;6282;51.440;6.938;2023-02-17T09:20:07;11.50;99.90
12436;DHT22;6282;51.440;6.938;2023-02-17T09:22:34;11.60;99.90
12436;DHT22;6282;51.440;6.938;2023-02-17T09:25:02;11.60;99.90
12436;DHT22;6282;51.440;6.938;2023-02-17T09:27:29;11.60;99.90
12436;DHT22;6282;51.440;6.938;2023-02-17T09:32:23;11.60;99.90
12436;DHT22;6282;51.440;6.938;2023-02-17T09:34:51;11.80;99.90
12436;DHT22;6282;51.440;6.938;2023-02-17T09:37:19;12.20;99.90
12436;DHT22;6282;51.440;6.938;2023-02-17T09:39:46;11.80;99.90
12436;DHT22;6282;51.440;6.938;2023-02-17T09:42:18;11.90;99.90
12436;DHT22;6282;51.440;6.938;2023-02-17T09:44:48;11.90;99.90
12436;DHT22;6282;51.440;6.938;2023-02-17T09:47:21;12.10;99.90
12436;DHT22;6282;51.440;6.938;2023-02-17T09:49:58;12.10;99.90
12436;DHT22;6282;51.440;6.938;2023-02-17T09:52:29;12.10;99.90
12436;DHT22;6282;51.440;6.938;2023-02-17T09:55:02;12.80;99.90
12436;DHT22;6282;51.440;6.938;2023-02-17T09:57:33;12.20;99.90
12436;DHT22;6282;51.440;6.938;2023-02-17T10:00:06;12.30;99.90
12436;DHT22;6282;51.440;6.938;2023-02-17T10:02:40;12.30;99.90
12436;DHT22;6282;51.440;6.938;2023-02-17T10:05:14;12.40;99.90
12436;DHT22;6282;51.440;6.938;2023-02-17T10:07:45;12.40;99.90
12436;DHT22;6282;51.440;6.938;2023-02-17T10:10:16;12.40;99.90
12436;DHT22;6282;51.440;6.938;2023-02-17T10:12:45;12.50;99.90
12436;DHT22;6282;51.440;6.938;2023-02-17T10:15:16;12.70;99.90
12436;DHT22;6282;51.440;6.938;2023-02-17T10:17:49;12.60;99.90
12436;DHT22;6282;51.440;6.938;2023-02-17T10:20:23;12.60;99.90
12436;DHT22;6282;51.440;6.938;2023-02-17T10:22:54;12.50;99.90
12436;DHT22;6282;51.440;6.938;2023-02-17T10:25:37;12.50;99.90
12436;DHT22;6282;51.440;6.938;2023-02-17T10:28:08;12.50;99.90
12436;DHT22;6282;51.440;6.938;2023-02-17T10:30:40;12.50;99.90
12436;DHT22;6282;51.440;6.938;2023-02-17T10:33:12;12.50;99.90
12436;DHT22;6282;51.440;6.938;2023-02-17T10:35:48;12.40;99.90
12436;DHT22;6282;51.440;6.938;2023-02-17T10:38:18;12.40;99.90
12436;DHT22;6282;51.440;6.938;2023-02-17T10:40:53;12.40;99.90
12436;DHT22;6282;51.440;6.938;2023-02-17T10:43:23;12.40;99.90
12436;DHT22;6282;51.440;6.938;2023-02-17T10:45:51;12.50;99.90
12436;DHT22;6282;51.440;6.938;2023-02-17T10:48:22;12.50;99.90
12436;DHT22;6282;51.440;6.938;2023-02-17T10:50:51;12.80;99.90
12436;DHT22;6282;51.440;6.938;2023-02-17T10:53:21;12.70;99.90
12436;DHT22;6282;51.440;6.938;2023-02-17T10:55:54;12.60;99.90
12436;DHT22;6282;51.440;6.938;2023-02-17T10:58:30;12.80;99.90
12436;DHT22;6282;51.440;6.938;2023-02-17T11:00:59;12.80;99.90
12436;DHT22;6282;51.440;6.938;2023-02-17T11:03:28;12.90;99.90
12436;DHT22;6282;51.440;6.938;2023-02-17T11:05:58;12.80;99.90
12436;DHT22;6282;51.440;6.938;2023-02-17T11:08:36;12.80;99.90
12436;DHT22;6282;51.440;6.938;2023-02-17T11:11:11;12.90;99.90
12436;DHT22;6282;51.440;6.938;2023-02-17T11:13:43;12.70;99.90
12436;DHT22;6282;51.440;6.938;2023-02-17T11:16:20;12.80;99.90
12436;DHT22;6282;51.440;6.938;2023-02-17T11:18:48;12.80;99.90
12436;DHT22;6282;51.440;6.938;2023-02-17T11:21:17;12.80;99.90
12436;DHT22;6282;51.440;6.938;2023-02-17T11:23:49;12.80;99.90
12436;DHT22;6282;51.440;6.938;2023-02-17T11:26:21;13.00;99.90
12436;DHT22;6282;51.440;6.938;2023-02-17T11:28:48;12.90;99.90
12436;DHT22;6282;51.440;6.938;2023-02-17T11:31:23;13.00;99.90
12436;DHT22;6282;51.440;6.938;2023-02-17T11:33:50;13.10;99.90
12436;DHT22;6282;51.440;6.938;2023-02-17T11:36:24;13.10;99.90
12436;DHT22;6282;51.440;6.938;2023-02-17T11:38:51;13.20;99.90
12436;DHT22;6282;51.440;6.938;2023-02-17T11:41:18;13.20;99.90
12436;DHT22;6282;51.440;6.938;2023-02-17T11:43:55;13.30;99.90
12436;DHT22;6282;51.440;6.938;2023-02-17T11:46:28;13.50;99.90
12436;DHT22;6282;51.440;6.938;2023-02-17T11:49:17;13.30;99.90
12436;DHT22;6282;51.440;6.938;2023-02-17T11:51:57;13.70;99.90
12436;DHT22;6282;51.440;6.938;2023-02-17T11:54:30;13.40;99.90
12436;DHT22;6282;51.440;6.938;2023-02-17T11:57:12;13.50;99.90
12436;DHT22;6282;51.440;6.938;2023-02-17T11:59:53;13.40;99.90
12436;DHT22;6282;51.440;6.938;2023-02-17T12:02:36;13.30;99.90
12436;DHT22;6282;51.440;6.938;2023-02-17T12:05:15;13.20;99.90
12436;DHT22;6282;51.440;6.938;2023-02-17T12:07:56;13.30;99.90
12436;DHT22;6282;51.440;6.938;2023-02-17T12:10:36;13.20;99.90
12436;DHT22;6282;51.440;6.938;2023-02-17T12:13:20;13.20;99.90
12436;DHT22;6282;51.440;6.938;2023-02-17T12:15:58;13.30;99.90
12436;DHT22;6282;51.440;6.938;2023-02-17T12:18:40;13.40;99.90
12436;DHT22;6282;51.440;6.938;2023-02-17T12:21:11;13.50;99.90
12436;DHT22;6282;51.440;6.938;2023-02-17T12:23:57;13.60;99.90
12436;DHT22;6282;51.440;6.938;2023-02-17T12:26:35;13.70;99.90
12436;DHT22;6282;51.440;6.938;2023-02-17T12:29:11;13.60;99.90
12436;DHT22;6282;51.440;6.938;2023-02-17T12:31:51;13.60;99.90
12436;DHT22;6282;51.440;6.938;2023-02-17T12:34:26;13.70;99.90
12436;DHT22;6282;51.440;6.938;2023-02-17T12:36:56;13.60;99.90
12436;DHT22;6282;51.440;6.938;2023-02-17T12:39:29;13.60;99.90
12436;DHT22;6282;51.440;6.938;2023-02-17T12:42:02;13.60;99.90
12436;DHT22;6282;51.440;6.938;2023-02-17T12:44:33;13.50;99.90
12436;DHT22;6282;51.440;6.938;2023-02-17T12:47:08;13.60;99.90
12436;DHT22;6282;51.440;6.938;2023-02-17T12:49:40;13.60;99.90
12436;DHT22;6282;51.440;6.938;2023-02-17T12:52:14;14.00;99.90
12436;DHT22;6282;51.440;6.938;2023-02-17T12:54:48;13.60;99.90
12436;DHT22;6282;51.440;6.938;2023-02-17T12:57:19;13.60;99.90
12436;DHT22;6282;51.440;6.938;2023-02-17T12:59:49;13.50;99.90
12436;DHT22;6282;51.440;6.938;2023-02-17T13:02:18;13.50;99.90
12436;DHT22;6282;51.440;6.938;2023-02-17T13:04:48;13.60;99.90
12436;DHT22;6282;51.440;6.938;2023-02-17T13:07:25;13.60;99.90
12436;DHT22;6282;51.440;6.938;2023-02-17T13:09:59;13.70;99.90
12436;DHT22;6282;51.440;6.938;2023-02-17T13:12:35;13.80;99.90
12436;DHT22;6282;51.440;6.938;2023-02-17T13:15:05;13.80;99.90
12436;DHT22;6282;51.440;6.938;2023-02-17T13:17:36;13.70;99.90
12436;DHT22;6282;51.440;6.938;2023-02-17T13:20:22;13.80;99.90
12436;DHT22;6282;51.440;6.938;2023-02-17T13:22:50;13.80;99.90
12436;DHT22;6282;51.440;6.938;2023-02-17T13:25:29;13.80;99.90
12436;DHT22;6282;51.440;6.938;2023-02-17T13:27:57;13.80;99.90
12436;DHT22;6282;51.440;6.938;2023-02-17T13:30:29;13.70;99.90
12436;DHT22;6282;51.440;6.938;2023-02-17T13:33:01;13.80;99.90
12436;DHT22;6282;51.440;6.938;2023-02-17T13:35:31;13.80;99.90
12436;DHT22;6282;51.440;6.938;2023-02-17T13:37:59;13.80;99.90
12436;DHT22;6282;51.440;6.938;2023-02-17T13:40:36;13.80;99.90
12436;DHT22;6282;51.440;6.938;2023-02-17T13:43:13;13.80;99.90
12436;DHT22;6282;51.440;6.938;2023-02-17T13:45:43;13.90;99.90
12436;DHT22;6282;51.440;6.938;2023-02-17T13:48:13;13.90;99.90
12436;DHT22;6282;51.440;6.938;2023-02-17T13:50:44;13.80;99.90
12436;DHT22;6282;51.440;6.938;2023-02-17T13:53:24;13.80;99.90
12436;DHT22;6282;51.440;6.938;2023-02-17T13:55:54;13.50;99.90
12436;DHT22;6282;51.440;6.938;2023-02-17T13:58:23;13.50;99.90
12436;DHT22;6282;51.440;6.938;2023-02-17T14:00:52;13.70;99.90
12436;DHT22;6282;51.440;6.938;2023-02-17T14:03:20;13.60;99.90
12436;DHT22;6282;51.440;6.938;2023-02-17T14:05:49;13.60;99.90
12436;DHT22;6282;51.440;6.938;2023-02-17T14:08:20;13.60;99.90
12436;DHT22;6282;51.440;6.938;2023-02-17T14:10:48;13.70;99.90
12436;DHT22;6282;51.440;6.938;2023-02-17T14:13:17;13.50;99.90
12436;DHT22;6282;51.440;6.938;2023-02-17T14:15:55;13.50;99.90
12436;DHT22;6282;51.440;6.938;2023-02-17T14:18:31;13.50;99.90
12436;DHT22;6282;51.440;6.938;2023-02-17T14:21:01;13.30;99.90
12436;DHT22;6282;51.440;6.938;2023-02-17T14:23:39;13.40;99.90
12436;DHT22;6282;51.440;6.938;2023-02-17T14:26:09;13.40;99.90
12436;DHT22;6282;51.440;6.938;2023-02-17T14:28:38;13.40;99.90
12436;DHT22;6282;51.440;6.938;2023-02-17T14:31:09;13.20;99.90
12436;DHT22;6282;51.440;6.938;2023-02-17T14:33:36;13.80;99.90
12436;DHT22;6282;51.440;6.938;2023-02-17T14:36:04;13.10;99.90
12436;DHT22;6282;51.440;6.938;2023-02-17T14:38:35;13.30;99.90
12436;DHT22;6282;51.440;6.938;2023-02-17T14:41:02;13.30;99.90
12436;DHT22;6282;51.440;6.938;2023-02-17T14:43:29;13.20;99.90
12436;DHT22;6282;51.440;6.938;2023-02-17T14:45:58;13.00;99.90
12436;DHT22;6282;51.440;6.938;2023-02-17T14:48:25;12.40;99.90
12436;DHT22;6282;51.440;6.938;2023-02-17T14:50:52;13.00;99.90
12436;DHT22;6282;51.440;6.938;2023-02-17T14:53:24;12.90;99.90
12436;DHT22;6282;51.440;6.938;2023-02-17T14:55:55;12.80;99.90
12436;DHT22;6282;51.440;6.938;2023-02-17T14:58:25;12.70;99.90
12436;DHT22;6282;51.440;6.938;2023-02-17T15:00:52;12.80;99.90
12436;DHT22;6282;51.440;6.938;2023-02-17T15:03:20;12.50;99.90
12436;DHT22;6282;51.440;6.938;2023-02-17T15:05:47;12.50;99.90
12436;DHT22;6282;51.440;6.938;2023-02-17T15:08:16;12.40;99.90
12436;DHT22;6282;51.440;6.938;2023-02-17T15:10:44;12.20;99.90
12436;DHT22;6282;51.440;6.938;2023-02-17T15:13:13;11.90;99.90
12436;DHT22;6282;51.440;6.938;2023-02-17T15:15:40;12.10;99.90
12436;DHT22;6282;51.440;6.938;2023-02-17T15:18:09;12.30;99.90
12436;DHT22;6282;51.440;6.938;2023-02-17T15:20:40;12.10;99.90
12436;DHT22;6282;51.440;6.938;2023-02-17T15:23:11;12.10;99.90
12436;DHT22;6282;51.440;6.938;2023-02-17T15:25:39;12.00;99.90
12436;DHT22;6282;51.440;6.938;2023-02-17T15:28:06;12.00;99.90
12436;DHT22;6282;51.440;6.938;2023-02-17T15:30:34;11.90;99.90
12436;DHT22;6282;51.440;6.938;2023-02-17T15:33:02;11.70;99.90
12436;DHT22;6282;51.440;6.938;2023-02-17T15:35:28;11.60;99.90
12436;DHT22;6282;51.440;6.938;2023-02-17T15:37:57;11.80;99.90
12436;DHT22;6282;51.440;6.938;2023-02-17T15:40:25;11.60;99.90
12436;DHT22;6282;51.440;6.938;2023-02-17T15:42:55;11.70;99.90
12436;DHT22;6282;51.440;6.938;2023-02-17T15:45:23;11.70;99.90
12436;DHT22;6282;51.440;6.938;2023-02-17T15:47:51;11.80;99.90
12436;DHT22;6282;51.440;6.938;2023-02-17T15:50:25;11.60;99.90
12436;DHT22;6282;51.440;6.938;2023-02-17T15:52:52;11.20;99.90
12436;DHT22;6282;51.440;6.938;2023-02-17T15:55:20;11.70;99.90
12436;DHT22;6282;51.440;6.938;2023-02-17T15:57:50;11.60;99.90
12436;DHT22;6282;51.440;6.938;2023-02-17T16:00:21;11.70;99.90
12436;DHT22;6282;51.440;6.938;2023-02-17T16:02:48;11.70;99.90
12436;DHT22;6282;51.440;6.938;2023-02-17T16:05:18;11.70;99.90
12436;DHT22;6282;51.440;6.938;2023-02-17T16:07:45;11.70;99.90
12436;DHT22;6282;51.440;6.938;2023-02-17T16:10:14;11.70;99.90
12436;DHT22;6282;51.440;6.938;2023-02-17T16:12:43;11.70;99.90
12436;DHT22;6282;51.440;6.938;2023-02-17T16:15:13;11.70;99.90
12436;DHT22;6282;51.440;6.938;2023-02-17T16:17:40;11.80;99.90
12436;DHT22;6282;51.440;6.938;2023-02-17T16:20:13;11.90;99.90
12436;DHT22;6282;51.440;6.938;2023-02-17T16:22:42;11.80;99.90
12436;DHT22;6282;51.440;6.938;2023-02-17T16:25:10;11.90;99.90